Pagina principale
METAR-TAF:

METAR-TAF

Aeroporti :

Užice, Serbia

latitudine: 43-53-56N, longitudine: 19-41-52E, altezza: 904 m

Osservazione

Il bollettino è stato emesso 23 minuti fa, alle 16:00 UTC
Vento 5 kt da est/nord-est, variando fra nord/nord-est e est/sud-est
Temperature 27°C
Umidità 37%
Pressione 1021 hPa
Visibilità 10 km o più
Poco nuvoloso ad un'altezza di 2500 ft

METAR: LYUZ 191600Z 07005KT 020V110 9999 FEW025 27/11 Q1021

Ora: 18:23 (16:23 UTC)

Previsione

Il bollettino è stato emesso 5 ore e 23 minuti fa, alle 11:00 UTC
Previsione valida dal 19 alle 12 UTC al 20 alle 12 UTC
Vento 5 kt da est
Visibilità 10 km o più
nessuna nube inferiore a 1500 m e nessun cumulonembo

TAF: LYUZ 191100Z 1912/2012 08005KT CAVOK TX28/1914Z TN16/2004Z

Osservazioni e previsioni meteorologiche di più di 4000 aeroporti (messaggi METAR e TAF).

Le stazioni disponibili sono rappresentate dai dischi gialli e rossi sulla carta.

Puntare il mouse per vedere il nome della stazione.

Clicca sopra per visualizzare le osservazioni e previsioni meteorologiche.

Per cambiare la mappa : fare clic sui pulsanti verdi con una croce nera per ingrandire, il pulsante verde con un trattino per diminuire, o sulla freccia verde per le mappe adiacenti.


METAR-TAF: